Time;durP1;ratioP1;P1;durP2;ratioP2;P2;SDS_P1;SDS_P2;PMS_P1;PMS_P2;Temp;Humidity;BMP_temperature;BMP_pressure;BME280_temperature;BME280_humidity;BME280_pressure;Samples;Min_cycle;Max_cycle;Signal;HPM_P1;HPM_P2
2021/10/18 00:00:55;;;;;;;32.53;20.25;;;;;;;8.56;97.07;101134.84;5030864;28;20588;-52
2021/10/18 00:03:22;;;;;;;33.45;18.98;;;;;;;8.53;97.29;101134.06;5029892;28;20045;-52
2021/10/18 00:05:49;;;;;;;33.42;19.83;;;;;;;8.50;97.32;101131.53;5023932;28;20124;-53
2021/10/18 00:08:16;;;;;;;30.80;17.63;;;;;;;8.46;97.59;101130.72;5026186;28;20056;-54
2021/10/18 00:10:42;;;;;;;25.10;15.20;;;;;;;8.31;96.34;101126.69;5026555;28;20084;-54
2021/10/18 00:13:29;;;;;;;24.15;14.02;;;;;;;8.22;95.96;101133.94;5033540;28;20045;-54
2021/10/18 00:15:56;;;;;;;19.27;12.05;;;;;;;8.09;95.47;101130.75;5032093;28;20133;-54
2021/10/18 00:18:22;;;;;;;18.50;12.35;;;;;;;8.02;95.25;101131.84;5028359;28;20049;-53
2021/10/18 00:20:49;;;;;;;21.02;12.63;;;;;;;7.91;95.41;101139.13;5029929;28;20048;-53
2021/10/18 00:23:15;;;;;;;18.95;12.02;;;;;;;7.95;95.09;101143.44;5036535;28;20512;-52
2021/10/18 00:25:42;;;;;;;19.35;11.82;;;;;;;7.89;94.77;101154.09;5026949;28;20146;-51
2021/10/18 00:28:09;;;;;;;22.55;12.15;;;;;;;7.79;95.08;101160.50;5030761;28;20053;-51
2021/10/18 00:30:35;;;;;;;18.35;11.60;;;;;;;7.76;95.31;101166.72;5033602;28;20047;-53
2021/10/18 00:33:02;;;;;;;18.60;10.52;;;;;;;7.64;95.04;101161.75;5027948;28;21047;-52
2021/10/18 00:35:28;;;;;;;18.30;10.98;;;;;;;7.57;95.18;101158.34;5029462;28;20060;-53
2021/10/18 00:37:55;;;;;;;16.70;10.98;;;;;;;7.49;95.07;101152.41;5029670;28;20053;-54
2021/10/18 00:40:21;;;;;;;18.20;10.02;;;;;;;7.44;95.35;101162.19;5023748;28;20049;-53
2021/10/18 00:42:50;;;;;;;15.35;9.50;;;;;;;7.39;95.05;101154.41;5027827;28;21046;-52
2021/10/18 00:45:18;;;;;;;18.55;9.77;;;;;;;7.35;95.01;101155.34;5032101;28;20040;-53
2021/10/18 00:47:44;;;;;;;13.50;8.68;;;;;;;7.28;95.45;101164.28;5020773;28;20053;-53
2021/10/18 00:50:11;;;;;;;15.43;9.32;;;;;;;7.25;95.79;101153.78;5030998;28;20053;-52
2021/10/18 00:52:38;;;;;;;15.50;9.38;;;;;;;7.23;95.82;101152.97;5035571;28;20056;-52
2021/10/18 00:55:05;;;;;;;14.10;9.45;;;;;;;7.19;96.39;101156.56;5034247;28;20045;-53
2021/10/18 00:57:32;;;;;;;14.65;9.52;;;;;;;7.17;96.44;101161.00;5020189;28;20053;-53
2021/10/18 01:00:00;;;;;;;15.88;9.63;;;;;;;7.12;96.50;101151.44;5022290;28;20041;-51
2021/10/18 01:02:27;;;;;;;15.27;9.25;;;;;;;7.11;96.76;101158.47;5024602;28;20513;-52
2021/10/18 01:04:55;;;;;;;17.40;9.35;;;;;;;7.09;97.19;101160.28;5027543;28;20053;-53
2021/10/18 01:07:21;;;;;;;15.05;8.93;;;;;;;7.08;97.54;101165.59;5023431;28;20049;-52
2021/10/18 01:09:48;;;;;;;15.32;9.50;;;;;;;7.04;97.27;101162.16;5040312;28;20436;-51
2021/10/18 01:12:15;;;;;;;12.82;8.63;;;;;;;7.04;97.23;101160.41;5025097;28;20071;-53
2021/10/18 01:14:41;;;;;;;14.10;8.85;;;;;;;7.03;97.82;101158.66;5049628;28;20056;-53
2021/10/18 01:17:08;;;;;;;13.75;8.73;;;;;;;7.00;97.66;101156.09;5025333;28;20732;-53
2021/10/18 01:19:35;;;;;;;12.93;8.80;;;;;;;7.01;97.51;101170.97;5033982;28;20057;-52
2021/10/18 01:22:02;;;;;;;14.07;8.13;;;;;;;7.01;97.41;101176.25;5035577;28;20112;-52
2021/10/18 01:24:30;;;;;;;14.38;8.38;;;;;;;6.98;97.66;101164.91;5029355;28;20049;-51
2021/10/18 01:26:57;;;;;;;11.93;7.55;;;;;;;6.94;97.26;101152.69;5025209;28;20056;-52
2021/10/18 01:29:23;;;;;;;13.65;7.93;;;;;;;6.85;97.62;101137.09;5036853;28;20439;-52
2021/10/18 01:31:51;;;;;;;15.20;8.10;;;;;;;6.93;97.49;101156.22;5037736;28;20064;-51
2021/10/18 01:34:17;;;;;;;13.05;8.25;;;;;;;6.93;97.69;101156.22;5034886;28;20060;-54
2021/10/18 01:36:44;;;;;;;14.93;8.77;;;;;;;6.90;97.55;101151.03;5020372;28;20051;-52
2021/10/18 01:39:10;;;;;;;14.07;8.45;;;;;;;6.89;98.43;101142.28;5029896;28;20067;-53
2021/10/18 01:41:37;;;;;;;14.70;9.35;;;;;;;6.87;98.49;101144.06;5039814;28;20045;-51
2021/10/18 01:44:04;;;;;;;14.48;9.50;;;;;;;6.88;98.08;101156.34;5027426;28;20055;-52
2021/10/18 01:46:30;;;;;;;16.52;10.23;;;;;;;6.81;98.68;101146.81;5028486;28;20052;-52
2021/10/18 01:48:57;;;;;;;15.63;9.90;;;;;;;6.95;98.21;101168.47;5030495;28;20059;-52
2021/10/18 01:51:23;;;;;;;11.98;9.13;;;;;;;6.93;98.36;101164.13;5030461;28;20041;-52
2021/10/18 01:53:50;;;;;;;15.45;9.48;;;;;;;6.90;98.67;101156.31;5035244;28;20052;-52
2021/10/18 01:56:16;;;;;;;12.40;9.05;;;;;;;6.89;98.70;101157.19;5034839;28;20419;-52
2021/10/18 01:58:42;;;;;;;14.52;9.35;;;;;;;6.90;99.07;101151.91;5037532;28;20450;-54
2021/10/18 02:01:09;;;;;;;16.33;10.20;;;;;;;6.93;99.08;101148.31;5039502;28;20037;-53
2021/10/18 02:03:37;;;;;;;17.58;9.57;;;;;;;6.92;98.95;101146.63;5032944;28;20045;-52
2021/10/18 02:06:03;;;;;;;13.10;8.85;;;;;;;6.94;99.18;101150.06;5040088;28;20052;-52
2021/10/18 02:08:34;;;;;;;12.88;8.38;;;;;;;6.98;98.26;101154.38;5025933;28;20052;-52
2021/10/18 02:11:00;;;;;;;13.32;8.82;;;;;;;7.02;98.22;101159.56;5032526;28;20952;-52
2021/10/18 02:13:26;;;;;;;14.07;9.25;;;;;;;7.02;98.02;101161.31;5036655;28;20041;-50
2021/10/18 02:15:53;;;;;;;14.82;9.30;;;;;;;7.04;98.19;101160.41;5038114;28;20506;-52
2021/10/18 02:18:20;;;;;;;16.30;8.90;;;;;;;7.04;97.94;101167.44;5025951;28;20049;-53
2021/10/18 02:20:47;;;;;;;14.68;8.52;;;;;;;7.03;98.35;101158.66;5030387;28;20060;-52
2021/10/18 02:23:13;;;;;;;12.65;8.20;;;;;;;7.08;98.37;101170.88;5030955;28;20049;-52
2021/10/18 02:25:40;;;;;;;16.25;8.05;;;;;;;7.08;98.05;101163.84;5033007;28;20048;-52
2021/10/18 02:28:06;;;;;;;13.82;7.97;;;;;;;7.11;97.78;101176.06;5027044;28;20498;-52
2021/10/18 02:30:33;;;;;;;10.27;7.60;;;;;;;7.09;97.95;101167.31;5036419;28;20048;-53
2021/10/18 02:32:59;;;;;;;11.20;8.52;;;;;;;7.11;97.60;101169.03;5032179;28;20606;-51
2021/10/18 02:35:26;;;;;;;11.30;7.75;;;;;;;7.13;97.24;101169.84;5032704;28;20053;-51
2021/10/18 02:37:52;;;;;;;12.98;8.00;;;;;;;7.12;97.10;101168.13;5028050;28;20048;-51
2021/10/18 02:40:19;;;;;;;11.90;7.60;;;;;;;7.15;97.01;101168.06;5029404;28;20057;-52
2021/10/18 02:42:45;;;;;;;11.70;7.55;;;;;;;7.16;97.24;101169.81;5034193;28;20064;-53
2021/10/18 02:45:12;;;;;;;11.35;7.82;;;;;;;7.20;96.63;101165.34;5019733;28;20049;-52
2021/10/18 02:47:38;;;;;;;13.13;7.90;;;;;;;7.20;96.97;101166.22;5026710;28;20099;-53
2021/10/18 02:50:05;;;;;;;13.18;8.15;;;;;;;7.21;97.03;101160.06;5015775;28;20083;-52
2021/10/18 02:52:32;;;;;;;14.18;8.13;;;;;;;7.20;97.40;101163.59;5034283;28;20072;-54
2021/10/18 02:54:58;;;;;;;12.02;8.02;;;;;;;7.23;96.92;101166.16;5032296;28;20057;-51
2021/10/18 02:57:25;;;;;;;15.13;9.18;;;;;;;7.25;97.29;101159.06;5026643;28;20053;-52
2021/10/18 02:59:51;;;;;;;15.25;9.15;;;;;;;7.30;97.72;101153.69;5025831;28;20045;-52
2021/10/18 03:02:18;;;;;;;12.82;8.60;;;;;;;7.33;97.25;101165.06;5036878;28;20048;-52
2021/10/18 03:04:46;;;;;;;14.27;8.60;;;;;;;7.38;97.21;101167.59;5032329;28;20155;-53
2021/10/18 03:07:12;;;;;;;11.25;8.18;;;;;;;7.39;96.99;101171.97;5029425;28;20057;-53
2021/10/18 03:09:39;;;;;;;13.20;8.10;;;;;;;7.42;96.90;101171.00;5029013;28;20391;-52
2021/10/18 03:12:06;;;;;;;14.23;9.13;;;;;;;7.42;96.80;101171.88;5026196;28;20038;-51
2021/10/18 03:14:32;;;;;;;13.88;9.18;;;;;;;7.43;97.15;101172.75;5036271;28;20387;-53
2021/10/18 03:16:59;;;;;;;20.00;10.50;;;;;;;7.42;97.76;101171.88;5024663;28;20067;-53
2021/10/18 03:19:25;;;;;;;13.32;8.77;;;;;;;7.40;97.44;101168.41;5032172;28;20057;-51
2021/10/18 03:21:52;;;;;;;16.05;9.05;;;;;;;7.44;98.27;101166.56;5028878;28;20606;-51
2021/10/18 03:24:18;;;;;;;11.70;8.73;;;;;;;7.48;97.84;101163.84;5025192;28;20053;-51
2021/10/18 03:26:45;;;;;;;13.15;8.13;;;;;;;7.50;97.79;101161.19;5028116;28;20513;-51
2021/10/18 03:29:11;;;;;;;11.82;7.78;;;;;;;7.55;96.55;101152.28;5022555;28;20495;-52
2021/10/18 03:31:37;;;;;;;11.40;7.68;;;;;;;7.51;96.17;101165.56;5026724;28;20064;-53
2021/10/18 03:34:05;;;;;;;12.15;7.30;;;;;;;7.49;96.61;101170.00;5027609;28;20045;-52
2021/10/18 03:36:32;;;;;;;11.00;7.53;;;;;;;7.48;96.82;101171.75;5024962;28;20041;-52
2021/10/18 03:38:58;;;;;;;12.25;8.05;;;;;;;7.46;96.99;101173.56;5021164;28;20041;-52
2021/10/18 03:41:25;;;;;;;13.00;7.72;;;;;;;7.46;97.18;101184.09;5022181;28;20514;-53
2021/10/18 03:43:51;;;;;;;11.15;7.63;;;;;;;7.49;97.31;101196.34;5030256;28;20055;-52
2021/10/18 03:46:18;;;;;;;15.55;7.63;;;;;;;7.49;97.14;101197.22;5031196;28;20064;-53
2021/10/18 03:48:44;;;;;;;13.40;7.95;;;;;;;7.48;96.66;101205.16;5028882;28;20053;-52
2021/10/18 03:51:11;;;;;;;14.65;8.93;;;;;;;7.47;96.80;101201.63;5033697;28;20056;-52
2021/10/18 03:53:37;;;;;;;13.68;8.40;;;;;;;7.53;96.59;101200.66;5028062;28;20410;-53
2021/10/18 03:56:04;;;;;;;16.00;8.75;;;;;;;7.54;96.73;101205.03;5033006;28;20048;-55
2021/10/18 03:58:30;;;;;;;16.75;9.30;;;;;;;7.50;96.04;101193.69;5022340;28;20354;-53
2021/10/18 04:00:57;;;;;;;16.17;10.15;;;;;;;7.57;96.44;101207.56;5027445;28;21651;-52
2021/10/18 04:03:23;;;;;;;15.70;9.90;;;;;;;7.58;96.64;101214.56;5031971;28;20164;-53
2021/10/18 04:05:50;;;;;;;16.13;10.15;;;;;;;7.58;96.83;101215.44;5037429;28;20457;-52
2021/10/18 04:08:17;;;;;;;17.10;10.15;;;;;;;7.61;96.92;101222.44;5023506;28;20053;-57
2021/10/18 04:10:43;;;;;;;22.63;10.88;;;;;;;7.63;97.26;101216.22;5029463;28;20063;-51
2021/10/18 04:13:10;;;;;;;22.33;11.43;;;;;;;7.64;97.31;101217.09;5028976;28;20502;-52
2021/10/18 04:15:36;;;;;;;21.60;10.73;;;;;;;7.66;96.79;101220.56;5035797;28;20837;-53
2021/10/18 04:18:03;;;;;;;21.70;10.45;;;;;;;7.65;96.95;101216.19;5026936;28;20937;-52
2021/10/18 04:20:33;;;;;;;17.45;10.40;;;;;;;7.68;97.15;101222.28;5031774;28;20045;-51
2021/10/18 04:23:00;;;;;;;20.85;10.25;;;;;;;7.67;96.44;101220.53;5025152;28;20049;-52
2021/10/18 04:25:26;;;;;;;22.23;11.05;;;;;;;7.69;96.51;101218.75;5032776;28;20057;-51
2021/10/18 04:27:53;;;;;;;24.00;11.30;;;;;;;7.71;96.47;101226.63;5021104;28;20525;-51
2021/10/18 04:30:19;;;;;;;19.20;10.70;;;;;;;7.75;96.47;101229.13;5036762;28;20409;-52
2021/10/18 04:32:46;;;;;;;24.83;11.32;;;;;;;7.80;96.33;101230.81;5023744;28;20061;-52
2021/10/18 04:35:12;;;;;;;23.15;11.13;;;;;;;7.80;96.36;101231.66;5023579;28;20049;-53
2021/10/18 04:37:39;;;;;;;20.67;10.90;;;;;;;7.84;96.43;101237.75;5025139;28;20041;-52
2021/10/18 04:40:07;;;;;;;22.35;11.15;;;;;;;7.81;96.38;101238.69;5023100;28;20044;-52
2021/10/18 04:42:34;;;;;;;22.20;12.13;;;;;;;7.83;97.02;101241.28;5028423;28;20422;-54
2021/10/18 04:45:00;;;;;;;24.40;12.38;;;;;;;7.82;96.93;101239.56;5024574;28;20045;-51
2021/10/18 04:47:26;;;;;;;28.77;13.02;;;;;;;7.82;97.27;101252.75;5028258;28;20056;-53
2021/10/18 04:49:53;;;;;;;33.80;13.80;;;;;;;7.84;97.67;101256.22;5021982;28;20042;-52
2021/10/18 04:52:19;;;;;;;35.42;14.52;;;;;;;7.84;97.78;101251.81;5031118;28;20096;-53
2021/10/18 04:54:46;;;;;;;40.10;15.88;;;;;;;7.87;98.00;101251.72;5052318;28;20052;-51
2021/10/18 04:57:12;;;;;;;46.25;17.38;;;;;;;7.90;97.84;101256.06;5039732;28;20053;-54
2021/10/18 04:59:39;;;;;;;46.92;16.95;;;;;;;7.90;97.88;101258.69;5033075;28;20052;-52
2021/10/18 05:02:05;;;;;;;55.15;18.45;;;;;;;7.91;98.06;101269.22;5026476;28;20038;-53
2021/10/18 05:04:32;;;;;;;53.75;18.05;;;;;;;7.96;98.37;101261.22;5024938;28;20052;-52
2021/10/18 05:06:59;;;;;;;53.25;18.42;;;;;;;8.02;97.91;101269.00;5024428;28;21534;-52
2021/10/18 05:09:25;;;;;;;58.92;18.80;;;;;;;7.97;98.09;101260.31;5019321;28;20069;-52
2021/10/18 05:11:51;;;;;;;64.38;19.98;;;;;;;7.94;98.50;101269.16;5022426;28;20050;-54
2021/10/18 05:14:19;;;;;;;63.33;21.05;;;;;;;7.94;99.06;101266.50;5023164;28;20165;-52
2021/10/18 05:16:45;;;;;;;64.85;21.13;;;;;;;7.92;99.40;101262.16;5029490;28;20500;-52
2021/10/18 05:19:12;;;;;;;60.42;20.58;;;;;;;7.94;99.81;101263.88;5029326;28;20116;-54
2021/10/18 05:21:38;;;;;;;68.10;21.30;;;;;;;7.94;100.00;101261.25;5032292;28;20045;-54
2021/10/18 05:24:05;;;;;;;79.82;22.85;;;;;;;7.90;100.00;101272.75;5032766;28;20414;-51
2021/10/18 05:26:31;;;;;;;84.20;24.42;;;;;;;7.91;100.00;101270.97;5032913;28;20060;-51
2021/10/18 05:28:58;;;;;;;79.28;23.25;;;;;;;7.89;100.00;101273.66;5022391;28;20071;-52
2021/10/18 05:31:24;;;;;;;75.20;22.13;;;;;;;7.90;100.00;101272.75;5023507;28;20049;-53
2021/10/18 05:33:51;;;;;;;76.97;22.90;;;;;;;7.90;100.00;101266.59;5032005;28;20049;-52
2021/10/18 05:36:17;;;;;;;69.65;21.35;;;;;;;7.93;100.00;101285.88;5022366;28;20045;-52
2021/10/18 05:38:44;;;;;;;76.13;21.92;;;;;;;7.96;100.00;101285.81;5020777;28;20554;-53
2021/10/18 05:41:11;;;;;;;69.05;21.50;;;;;;;7.96;100.00;101287.59;5031368;28;20053;-53
2021/10/18 05:43:37;;;;;;;71.97;20.75;;;;;;;7.96;100.00;101292.84;5026708;28;20056;-53
2021/10/18 05:46:04;;;;;;;81.32;21.33;;;;;;;7.98;100.00;101294.56;5025383;28;20052;-52
2021/10/18 05:48:32;;;;;;;66.07;21.08;;;;;;;7.98;100.00;101289.28;5024991;28;20143;-52
2021/10/18 05:50:59;;;;;;;77.00;21.70;;;;;;;7.98;100.00;101294.56;5026583;28;20061;-52
2021/10/18 05:53:27;;;;;;;77.43;21.05;;;;;;;7.98;100.00;101294.56;5030736;28;20132;-52
2021/10/18 05:55:54;;;;;;;79.57;21.67;;;;;;;8.01;100.00;101289.22;5026504;28;20049;-51
2021/10/18 05:58:20;;;;;;;82.07;22.50;;;;;;;8.03;100.00;101287.41;5020308;28;20057;-53
2021/10/18 06:00:49;;;;;;;91.57;24.20;;;;;;;8.08;100.00;101289.94;5020382;28;20049;-53
2021/10/18 06:03:15;;;;;;;71.75;24.08;;;;;;;8.08;100.00;101280.25;5026943;28;20045;-52
2021/10/18 06:05:44;;;;;;;84.97;24.45;;;;;;;8.09;100.00;101279.34;5022336;28;20209;-53
2021/10/18 06:08:23;;;;;;;92.78;25.92;;;;;;;8.12;100.00;101275.78;5019820;28;20131;-52
2021/10/18 06:10:50;;;;;;;99.60;26.38;;;;;;;8.08;100.00;101280.25;5032378;28;20060;-52
2021/10/18 06:13:17;;;;;;;107.85;28.83;;;;;;;8.10;100.00;101278.44;5033898;28;20814;-52
2021/10/18 06:15:44;;;;;;;110.88;28.70;;;;;;;8.12;100.00;101280.19;5031910;28;20044;-53
2021/10/18 06:18:13;;;;;;;104.43;28.25;;;;;;;8.10;100.00;101280.22;5035378;28;20056;-51
2021/10/18 06:20:50;;;;;;;111.65;27.17;;;;;;;8.14;100.00;101283.66;5030029;28;20068;-52
2021/10/18 06:23:18;;;;;;;107.95;27.20;;;;;;;8.15;100.00;101290.69;5029879;28;20049;-53
2021/10/18 06:25:45;;;;;;;103.68;28.23;;;;;;;8.20;100.00;101286.16;5035599;28;20045;-52
2021/10/18 06:28:13;;;;;;;107.80;28.38;;;;;;;8.24;100.00;101298.38;5033388;28;20060;-53
2021/10/18 06:30:39;;;;;;;106.57;28.15;;;;;;;8.27;100.00;101299.19;5034575;28;20099;-53
2021/10/18 06:33:06;;;;;;;107.82;27.55;;;;;;;8.29;100.00;101307.06;5037637;28;20055;-53
2021/10/18 06:35:34;;;;;;;100.88;26.35;;;;;;;8.31;100.00;101305.25;5039261;28;20051;-52
2021/10/18 06:38:02;;;;;;;104.85;27.58;;;;;;;8.30;100.00;101314.94;5030346;28;20513;-54
2021/10/18 06:40:28;;;;;;;101.95;26.50;;;;;;;8.32;100.00;101314.94;5030812;28;20045;-54
2021/10/18 06:42:55;;;;;;;109.03;28.77;;;;;;;8.31;100.00;101314.03;5039639;28;20573;-51
2021/10/18 06:45:21;;;;;;;107.97;29.40;;;;;;;8.34;100.00;101318.41;5028689;28;20052;-52
2021/10/18 06:47:48;;;;;;;102.85;27.38;;;;;;;8.37;100.00;101321.84;5036130;28;20053;-52
2021/10/18 06:50:15;;;;;;;110.07;28.70;;;;;;;8.41;100.00;101323.50;5022144;28;20052;-54
2021/10/18 06:52:42;;;;;;;111.43;28.77;;;;;;;8.41;100.00;101327.91;5017997;28;20064;-53
2021/10/18 06:55:11;;;;;;;119.82;29.42;;;;;;;8.41;100.00;101322.63;5018656;28;20055;-52
2021/10/18 06:57:38;;;;;;;105.30;29.40;;;;;;;8.37;100.00;101303.34;5025891;28;20040;-52
2021/10/18 07:00:06;;;;;;;115.40;28.63;;;;;;;8.50;100.00;101326.84;5024275;28;21389;-53
2021/10/18 07:02:32;;;;;;;104.25;27.77;;;;;;;8.49;100.00;101333.91;5029778;28;20052;-52
2021/10/18 07:04:59;;;;;;;103.00;27.90;;;;;;;8.47;100.00;101342.75;5027168;28;20328;-54
2021/10/18 07:07:29;;;;;;;105.78;29.65;;;;;;;8.49;100.00;101347.09;5032900;28;21696;-52
2021/10/18 07:10:00;;;;;;;114.47;29.65;;;;;;;8.55;100.00;101339.00;5021019;28;20049;-59
2021/10/18 07:12:30;;;;;;;;;;;;;;;8.57;100.00;101337.22;5030921;28;20045;-52
2021/10/18 07:14:58;;;;;;;106.22;27.90;;;;;;;8.64;100.00;101346.75;5029554;28;19929;-52
2021/10/18 07:17:26;;;;;;;103.82;27.85;;;;;;;8.67;100.00;101348.41;5035207;28;20052;-51
2021/10/18 07:19:54;;;;;;;117.45;31.00;;;;;;;8.73;100.00;101348.28;5023018;28;20052;-52
2021/10/18 07:22:25;;;;;;;102.75;30.77;;;;;;;8.76;100.00;101359.63;5032170;28;20426;-52
2021/10/18 07:24:53;;;;;;;95.60;29.63;;;;;;;8.77;100.00;101361.38;5020571;28;20052;-53
2021/10/18 07:27:21;;;;;;;107.47;29.67;;;;;;;8.79;100.00;101362.22;5019870;28;20144;-52
2021/10/18 07:29:48;;;;;;;96.05;27.02;;;;;;;8.83;100.00;101365.63;5018732;28;20053;-51
2021/10/18 07:32:14;;;;;;;108.10;28.45;;;;;;;8.90;100.00;101371.63;5015759;28;20067;-52
2021/10/18 07:34:41;;;;;;;96.70;30.45;;;;;;;8.90;100.00;101372.50;5017829;28;20052;-52
2021/10/18 07:37:08;;;;;;;96.82;27.95;;;;;;;8.91;100.00;101373.38;5025155;28;20046;-53
2021/10/18 07:39:35;;;;;;;101.78;29.42;;;;;;;8.93;100.00;101376.84;5023329;28;20068;-52
2021/10/18 07:42:04;;;;;;;98.85;27.95;;;;;;;8.96;100.00;101382.06;5025140;28;20044;-53
2021/10/18 07:44:30;;;;;;;102.72;29.83;;;;;;;9.01;99.82;101369.59;5018486;28;20360;-52
2021/10/18 07:46:59;;;;;;;97.45;28.17;;;;;;;9.00;100.00;101383.69;5022532;28;20100;-54
2021/10/18 07:49:28;;;;;;;95.97;29.02;;;;;;;9.00;100.00;101379.28;5022320;28;20501;-53
2021/10/18 07:51:56;;;;;;;86.78;29.67;;;;;;;9.03;100.00;101378.34;5016260;28;20055;-51
2021/10/18 07:54:24;;;;;;;99.57;29.20;;;;;;;9.06;100.00;101378.28;5017779;28;20060;-53
2021/10/18 07:56:51;;;;;;;97.05;29.80;;;;;;;9.09;100.00;101381.72;5016358;28;20619;-53
2021/10/18 07:59:17;;;;;;;91.45;29.17;;;;;;;9.12;100.00;101372.84;5013379;28;20053;-53
2021/10/18 08:01:44;;;;;;;93.05;30.08;;;;;;;9.14;99.72;101373.66;5022355;28;20049;-52
2021/10/18 08:04:10;;;;;;;92.07;29.15;;;;;;;9.11;99.30;101371.97;5028395;28;20147;-54
2021/10/18 08:06:37;;;;;;;91.22;29.85;;;;;;;9.12;99.76;101372.84;5023563;28;20060;-54
2021/10/18 08:09:07;;;;;;;85.05;29.20;;;;;;;9.19;99.85;101366.47;5029060;28;20664;-53
2021/10/18 08:11:34;;;;;;;92.45;29.30;;;;;;;9.24;99.56;101361.97;5026829;28;20041;-53
2021/10/18 08:14:01;;;;;;;94.85;29.88;;;;;;;9.29;99.46;101364.47;5036521;28;20542;-52
2021/10/18 08:16:28;;;;;;;93.93;28.77;;;;;;;9.33;98.97;101367.00;5027703;28;20071;-53
2021/10/18 08:18:54;;;;;;;80.63;29.40;;;;;;;9.35;99.20;101365.19;5031349;28;20048;-52
2021/10/18 08:21:22;;;;;;;83.20;28.98;;;;;;;9.37;98.91;101366.00;5023541;28;20616;-52
2021/10/18 08:23:49;;;;;;;83.45;28.40;;;;;;;9.41;98.87;101375.59;5028633;28;20393;-54
2021/10/18 08:26:16;;;;;;;84.22;27.90;;;;;;;9.47;98.42;101372.78;5020783;28;20048;-52
2021/10/18 08:28:42;;;;;;;81.00;28.23;;;;;;;9.44;98.28;101354.34;5023594;28;20549;-52
2021/10/18 08:31:12;;;;;;;92.05;29.00;;;;;;;9.57;97.80;101365.47;5031358;28;20049;-52
2021/10/18 08:33:38;;;;;;;82.43;27.63;;;;;;;9.66;97.98;101374.91;5035504;28;20144;-52
2021/10/18 08:36:05;;;;;;;83.80;28.30;;;;;;;9.71;97.79;101378.31;5033864;28;20249;-52
2021/10/18 08:38:46;;;;;;;86.03;31.13;;;;;;;9.73;97.31;101374.72;5022385;28;20053;-51
2021/10/18 08:41:34;;;;;;;64.65;30.33;;;;;;;9.81;95.99;101379.78;5027397;28;20046;-52
2021/10/18 08:44:16;;;;;;;60.85;31.63;;;;;;;9.83;94.94;101377.97;5030539;28;20053;-52
2021/10/18 08:46:58;;;;;;;61.70;32.70;;;;;;;9.88;95.29;101385.78;5030633;28;20053;-53
2021/10/18 08:49:26;;;;;;;61.17;32.17;;;;;;;9.93;94.65;101390.00;5019578;28;20056;-53
2021/10/18 08:51:52;;;;;;;59.95;33.42;;;;;;;9.80;93.97;101367.47;5024522;28;20053;-53
2021/10/18 08:54:19;;;;;;;55.50;31.95;;;;;;;9.93;93.33;101381.22;5035067;28;20059;-53
2021/10/18 08:56:54;;;;;;;52.13;29.80;;;;;;;10.01;93.40;101382.75;5023481;28;20044;-53
2021/10/18 08:59:21;;;;;;;56.72;31.92;;;;;;;10.10;92.33;101376.28;5010146;28;20324;-53
2021/10/18 09:01:57;;;;;;;52.38;30.13;;;;;;;10.22;92.92;101386.56;5014455;28;21378;-53
2021/10/18 09:04:30;;;;;;;52.60;30.75;;;;;;;10.32;91.49;101393.31;5020714;28;20070;-54
2021/10/18 09:07:00;;;;;;;53.90;31.08;;;;;;;10.35;90.60;101392.38;5023425;28;20059;-53
2021/10/18 09:09:29;;;;;;;52.15;30.77;;;;;;;10.39;90.36;101394.03;5019738;28;20046;-52
2021/10/18 09:11:59;;;;;;;52.22;29.92;;;;;;;10.39;89.67;101394.84;5021135;28;20044;-54
2021/10/18 09:14:26;;;;;;;51.03;28.67;;;;;;;10.45;89.47;101399.09;5025355;28;20060;-51
2021/10/18 09:16:52;;;;;;;50.92;30.05;;;;;;;10.51;88.94;101398.94;5028461;28;20048;-52
2021/10/18 09:19:24;;;;;;;49.15;28.45;;;;;;;10.62;88.51;101398.59;5029803;28;20044;-58
2021/10/18 09:21:56;;;;;;;51.08;29.00;;;;;;;10.67;87.94;101392.25;5026455;28;20512;-56
2021/10/18 09:24:29;;;;;;;50.28;29.65;;;;;;;10.73;87.90;101393.81;5040569;28;20458;-53
2021/10/18 09:26:57;;;;;;;46.15;27.45;;;;;;;10.79;86.80;101393.63;5032191;28;20344;-56
2021/10/18 09:29:45;;;;;;;50.72;29.10;;;;;;;10.80;86.53;101384.78;5023752;28;20056;-53
2021/10/18 09:32:17;;;;;;;43.97;25.88;;;;;;;10.80;85.08;101400.66;5020886;28;20045;-52
2021/10/18 09:34:43;;;;;;;45.67;26.33;;;;;;;10.80;84.36;101403.31;5024090;28;20060;-52
2021/10/18 09:37:13;;;;;;;44.95;26.00;;;;;;;10.71;84.33;101404.47;5020317;28;20324;-52
2021/10/18 09:39:47;;;;;;;43.70;24.50;;;;;;;10.68;84.35;101409.88;5023313;28;20512;-52
2021/10/18 09:42:17;;;;;;;48.42;25.65;;;;;;;10.67;84.62;101409.91;5030494;28;20481;-53
2021/10/18 10:52:43;;;;;;;50.17;26.70;;;;;;;11.22;81.54;101393.06;5024273;28;20137;-51
2021/10/18 10:55:21;;;;;;;43.35;25.13;;;;;;;11.21;81.72;101388.69;5019907;28;20049;-53
2021/10/18 10:57:52;;;;;;;42.70;25.75;;;;;;;11.19;81.34;101388.75;5023240;28;20378;-51
2021/10/18 11:00:44;;;;;;;40.88;25.10;;;;;;;11.22;81.68;101383.34;5023162;28;20158;-52
2021/10/18 11:03:20;;;;;;;43.67;26.92;;;;;;;11.25;81.27;101387.69;5020742;28;20049;-53
2021/10/18 11:06:05;;;;;;;44.83;26.63;;;;;;;11.27;81.31;101375.25;5024303;28;20664;-52
2021/10/18 11:08:40;;;;;;;45.42;27.67;;;;;;;11.32;80.86;101364.47;5019623;28;20517;-52
2021/10/18 11:11:08;;;;;;;43.60;26.00;;;;;;;11.35;81.10;101362.56;5019322;28;20505;-52
2021/10/18 11:13:49;;;;;;;48.03;26.63;;;;;;;11.35;81.40;101359.06;5026721;28;20045;-53
2021/10/18 11:16:18;;;;;;;46.50;28.30;;;;;;;11.23;80.68;101339.13;5027867;28;20042;-52
2021/10/18 11:18:50;;;;;;;47.38;27.52;;;;;;;11.29;81.41;101349.53;5024762;28;20468;-53
2021/10/18 11:21:20;;;;;;;44.00;25.33;;;;;;;11.30;80.63;101358.38;5023147;28;20351;-52
2021/10/18 11:24:06;;;;;;;43.75;26.65;;;;;;;11.31;81.12;101353.00;5020948;28;20056;-52
2021/10/18 11:26:39;;;;;;;43.08;25.95;;;;;;;11.36;80.64;101359.00;5028320;28;20130;-53
2021/10/18 11:29:08;;;;;;;42.28;26.38;;;;;;;11.34;79.78;101367.91;5024665;28;20048;-53
2021/10/18 11:31:36;;;;;;;44.20;25.70;;;;;;;11.32;80.17;101362.69;5015041;28;20044;-53
2021/10/18 11:34:10;;;;;;;47.70;28.52;;;;;;;11.21;80.13;101343.63;5016176;28;20048;-53
2021/10/18 11:36:40;;;;;;;47.08;27.50;;;;;;;11.29;80.75;101362.81;5017929;28;20053;-53
2021/10/18 11:39:24;;;;;;;52.85;30.45;;;;;;;11.27;81.10;101361.97;5023594;28;20049;-52
2021/10/18 11:42:13;;;;;;;49.72;28.35;;;;;;;11.24;81.81;101351.47;5009548;28;21109;-53
2021/10/18 11:44:57;;;;;;;52.08;28.70;;;;;;;11.28;81.98;101344.28;5020522;28;20052;-52
2021/10/18 11:47:38;;;;;;;49.85;27.92;;;;;;;11.15;82.08;101325.28;5019720;28;20048;-53
2021/10/18 11:50:23;;;;;;;46.15;26.20;;;;;;;11.28;81.40;101345.16;5013481;28;20044;-53
2021/10/18 11:52:57;;;;;;;44.95;27.80;;;;;;;11.32;81.37;101340.63;5015701;28;20577;-51
2021/10/18 11:55:27;;;;;;;43.85;26.98;;;;;;;11.30;81.73;101332.72;5014564;28;20580;-53
2021/10/18 11:57:55;;;;;;;;;;;;;;;11.26;81.61;101331.09;5018614;28;20065;-54
2021/10/18 12:00:29;;;;;;;45.33;26.05;;;;;;;11.23;81.94;101325.88;5013502;28;20387;-55
2021/10/18 12:03:01;;;;;;;42.88;25.02;;;;;;;11.25;81.60;101332.00;5011522;28;20060;-53
2021/10/18 12:05:34;;;;;;;44.10;26.02;;;;;;;11.23;81.98;101324.09;5019449;28;20052;-54
2021/10/18 12:08:02;;;;;;;43.63;26.48;;;;;;;11.19;82.02;101321.59;5015576;28;20502;-58
2021/10/18 12:10:29;;;;;;;48.72;28.38;;;;;;;11.18;82.83;101327.81;5017268;28;20049;-52
2021/10/18 12:13:07;;;;;;;47.22;26.88;;;;;;;11.17;82.51;101326.97;5020948;28;20053;-52
2021/10/18 12:15:49;;;;;;;45.25;27.13;;;;;;;11.21;82.40;101331.22;5019808;28;20053;-53
2021/10/18 12:18:19;;;;;;;51.50;28.83;;;;;;;11.22;83.06;101329.44;5032462;28;20044;-51
2021/10/18 12:20:49;;;;;;;52.83;29.60;;;;;;;11.22;82.58;101329.44;5028899;28;20350;-52
2021/10/18 12:23:28;;;;;;;53.90;30.75;;;;;;;11.24;82.67;101335.56;5023429;28;20045;-52
2021/10/18 12:25:57;;;;;;;54.20;29.73;;;;;;;11.22;82.80;101330.31;5020321;28;20508;-55
2021/10/18 12:28:28;;;;;;;55.60;30.70;;;;;;;11.14;82.69;101328.88;5017724;28;20053;-52